Time;durP1;ratioP1;P1;durP2;ratioP2;P2;SDS_P1;SDS_P2;PMS_P1;PMS_P2;Temp;Humidity;BMP_temperature;BMP_pressure;BME280_temperature;BME280_humidity;BME280_pressure;Samples;Min_cycle;Max_cycle;Signal;HPM_P1;HPM_P2
2023/04/15 00:02:14;;;;;;;44.60;27.30;;;8.40;99.90;;;;;;5035014;28;20463;-77
2023/04/15 00:04:41;;;;;;;42.27;28.00;;;8.40;99.90;;;;;;5035023;28;20790;-79
2023/04/15 00:07:08;;;;;;;52.10;30.10;;;8.40;99.90;;;;;;5034247;28;20827;-77
2023/04/15 00:09:35;;;;;;;46.30;29.40;;;8.40;99.90;;;;;;5034226;28;20453;-77
2023/04/15 00:12:02;;;;;;;44.10;28.30;;;8.40;99.90;;;;;;5034309;28;20444;-76
2023/04/15 00:14:30;;;;;;;45.30;29.70;;;8.40;99.90;;;;;;5034243;28;20479;-76
2023/04/15 00:16:57;;;;;;;43.83;27.90;;;8.40;99.90;;;;;;5034843;28;20456;-76
2023/04/15 00:19:24;;;;;;;44.23;27.87;;;8.40;99.90;;;;;;5034107;28;20472;-76
2023/04/15 00:21:51;;;;;;;40.60;27.47;;;8.40;99.90;;;;;;5033989;28;20537;-77
2023/04/15 00:24:18;;;;;;;49.03;30.27;;;8.40;99.90;;;;;;5034128;28;20415;-77
2023/04/15 00:26:45;;;;;;;48.50;27.10;;;8.40;99.90;;;;;;5033995;28;20454;-77
2023/04/15 00:29:11;;;;;;;43.63;28.33;;;8.40;99.90;;;;;;5034148;28;20505;-77
2023/04/15 00:31:40;;;;;;;44.80;28.93;;;8.40;99.90;;;;;;5034665;28;20448;-77
2023/04/15 00:34:06;;;;;;;46.03;29.10;;;8.40;99.90;;;;;;5035803;28;20461;-76
2023/04/15 00:36:34;;;;;;;49.77;30.53;;;8.30;99.90;;;;;;5036616;28;20458;-77
2023/04/15 00:39:02;;;;;;;49.40;30.70;;;8.40;99.90;;;;;;5037529;28;20613;-77
2023/04/15 00:41:28;;;;;;;54.70;31.77;;;8.40;99.90;;;;;;5036116;28;20963;-77
2023/04/15 00:43:55;;;;;;;55.67;32.07;;;8.40;99.90;;;;;;5038377;28;20427;-77
2023/04/15 00:46:23;;;;;;;51.13;30.47;;;8.40;99.90;;;;;;5039381;28;20445;-77
2023/04/15 00:48:52;;;;;;;51.90;31.30;;;8.40;99.90;;;;;;5039346;28;20994;-77
2023/04/15 00:51:18;;;;;;;54.67;33.20;;;8.40;99.90;;;;;;5036377;28;20454;-77
2023/04/15 00:53:45;;;;;;;48.60;31.33;;;8.40;99.90;;;;;;5035178;28;20429;-77
2023/04/15 00:56:13;;;;;;;51.27;32.50;;;8.40;99.90;;;;;;5036345;28;20487;-77
2023/04/15 00:58:40;;;;;;;49.97;31.20;;;8.40;99.90;;;;;;5035777;28;20842;-77
2023/04/15 01:01:07;;;;;;;50.73;30.20;;;8.40;99.90;;;;;;5034006;28;20444;-78
2023/04/15 01:03:35;;;;;;;54.63;33.17;;;8.40;99.90;;;;;;5034705;28;20475;-78
2023/04/15 01:06:03;;;;;;;52.33;31.63;;;8.40;99.90;;;;;;5034510;28;20458;-77
2023/04/15 01:08:30;;;;;;;52.00;29.83;;;8.40;99.90;;;;;;5033279;28;20906;-77
2023/04/15 01:10:59;;;;;;;57.13;33.40;;;8.40;99.90;;;;;;5033648;28;20513;-77
2023/04/15 01:13:26;;;;;;;48.67;29.83;;;8.40;99.90;;;;;;5033471;28;20450;-77
2023/04/15 01:15:53;;;;;;;51.00;32.23;;;8.40;99.90;;;;;;5034259;28;20484;-77
2023/04/15 01:18:20;;;;;;;53.60;32.00;;;8.40;99.90;;;;;;5036131;28;20550;-78
2023/04/15 01:20:47;;;;;;;52.30;31.77;;;8.40;99.90;;;;;;5033801;28;20417;-77
2023/04/15 01:23:16;;;;;;;52.97;31.17;;;8.40;99.90;;;;;;5033466;28;20936;-77
2023/04/15 01:25:46;;;;;;;50.00;31.23;;;8.40;99.90;;;;;;5033006;28;20447;-77
2023/04/15 01:28:13;;;;;;;60.50;33.67;;;8.40;99.90;;;;;;5033117;28;20444;-77
2023/04/15 01:30:40;;;;;;;52.90;30.80;;;8.40;99.90;;;;;;5033110;28;20472;-77
2023/04/15 01:33:07;;;;;;;54.13;32.10;;;8.40;99.90;;;;;;5033816;28;20430;-77
2023/04/15 01:35:33;;;;;;;54.23;32.90;;;8.40;99.90;;;;;;5034101;28;20975;-77
2023/04/15 01:38:06;;;;;;;56.40;32.90;;;8.40;99.90;;;;;;5034456;28;20447;-77
2023/04/15 01:40:33;;;;;;;58.37;33.03;;;8.40;99.90;;;;;;5032954;28;20977;-77
2023/04/15 01:43:01;;;;;;;64.47;34.10;;;8.40;99.90;;;;;;5033497;28;20444;-77
2023/04/15 01:45:28;;;;;;;58.77;32.73;;;8.40;99.90;;;;;;5034188;28;20445;-77
2023/04/15 01:47:56;;;;;;;51.03;32.03;;;8.40;99.90;;;;;;5034246;28;20482;-77
2023/04/15 01:50:22;;;;;;;54.47;33.60;;;8.40;99.90;;;;;;5033197;28;20482;-78
2023/04/15 01:52:49;;;;;;;60.07;33.50;;;8.40;99.90;;;;;;5033642;28;20440;-77
2023/04/15 01:55:17;;;;;;;61.93;33.37;;;8.40;99.90;;;;;;5034891;28;20450;-77
2023/04/15 01:57:44;;;;;;;59.10;34.50;;;8.40;99.90;;;;;;5035152;28;20451;-78
2023/04/15 02:00:13;;;;;;;55.80;32.20;;;8.40;99.90;;;;;;5034370;28;20469;-77
2023/04/15 02:02:39;;;;;;;58.87;32.50;;;8.40;99.90;;;;;;5033205;28;20457;-77
2023/04/15 02:05:07;;;;;;;62.40;35.40;;;8.40;99.90;;;;;;5034431;28;20476;-77
2023/04/15 02:07:34;;;;;;;57.03;31.87;;;8.40;99.90;;;;;;5036722;28;20424;-77
2023/04/15 02:10:01;;;;;;;56.13;32.80;;;8.40;99.90;;;;;;5036519;28;20489;-77
2023/04/15 02:12:28;;;;;;;55.73;32.97;;;8.40;99.90;;;;;;5036642;28;20459;-77
2023/04/15 02:14:55;;;;;;;62.47;33.87;;;8.70;99.90;;;;;;5036228;28;21015;-77
2023/04/15 02:17:23;;;;;;;57.87;32.47;;;8.40;99.90;;;;;;5038149;28;20450;-77
2023/04/15 02:19:50;;;;;;;52.40;32.10;;;8.40;99.90;;;;;;5037476;28;20453;-77
2023/04/15 02:22:18;;;;;;;54.33;32.37;;;8.40;99.90;;;;;;5036325;28;20447;-77
2023/04/15 02:24:45;;;;;;;53.77;29.97;;;8.40;99.90;;;;;;5036952;28;21005;-77
2023/04/15 02:27:17;;;;;;;55.23;32.30;;;8.40;99.90;;;;;;5036173;28;20433;-77
2023/04/15 02:29:44;;;;;;;56.20;32.03;;;8.40;99.90;;;;;;5036313;28;20471;-77
2023/04/15 02:32:11;;;;;;;58.80;33.90;;;8.40;99.90;;;;;;5035879;28;20961;-78
2023/04/15 02:34:41;;;;;;;55.27;30.87;;;8.40;99.90;;;;;;5036801;28;20804;-77
2023/04/15 02:37:08;;;;;;;52.87;32.27;;;8.40;99.90;;;;;;5036694;28;20461;-77
2023/04/15 02:39:35;;;;;;;54.47;30.93;;;8.50;99.90;;;;;;5038960;28;20912;-77
2023/04/15 02:42:02;;;;;;;57.67;31.87;;;8.40;99.90;;;;;;5038725;28;20463;-77
2023/04/15 02:44:30;;;;;;;60.30;34.30;;;8.40;99.90;;;;;;5038381;28;20447;-77
2023/04/15 02:46:57;;;;;;;58.80;31.70;;;8.40;99.90;;;;;;5038000;28;20484;-78
2023/04/15 02:49:24;;;;;;;57.50;32.90;;;8.40;99.90;;;;;;5035700;28;20571;-76
2023/04/15 02:51:52;;;;;;;55.97;31.17;;;8.50;99.90;;;;;;5035763;28;20444;-78
2023/04/15 02:54:21;;;;;;;51.40;33.77;;;8.50;99.90;;;;;;5035821;28;20422;-77
2023/04/15 02:56:48;;;;;;;53.90;32.30;;;8.50;99.90;;;;;;5035401;28;20520;-78
2023/04/15 02:59:15;;;;;;;54.00;32.53;;;8.50;99.90;;;;;;5035664;28;20486;-78
2023/04/15 03:01:42;;;;;;;58.47;31.97;;;8.50;99.90;;;;;;5035566;28;20529;-78
2023/04/15 03:04:09;;;;;;;53.27;32.20;;;8.50;99.90;;;;;;5035639;28;20433;-77
2023/04/15 03:06:36;;;;;;;48.80;30.37;;;8.60;99.90;;;;;;5035644;28;20491;-78
2023/04/15 03:09:04;;;;;;;55.50;30.90;;;8.60;99.90;;;;;;5035374;28;20467;-77
2023/04/15 03:11:32;;;;;;;57.23;32.20;;;8.60;99.90;;;;;;5035604;28;20938;-78
2023/04/15 03:13:59;;;;;;;68.17;31.97;;;8.50;99.90;;;;;;5035235;28;20451;-78
2023/04/15 03:16:26;;;;;;;48.80;29.83;;;8.50;99.90;;;;;;5035259;28;20455;-77
2023/04/15 03:18:53;;;;;;;56.47;31.17;;;8.60;99.90;;;;;;5036664;28;20464;-77
2023/04/15 03:21:19;;;;;;;53.30;30.13;;;8.60;99.90;;;;;;5036974;28;20823;-77
2023/04/15 03:23:48;;;;;;;52.97;31.57;;;8.60;99.90;;;;;;5038414;28;20547;-77
2023/04/15 03:26:27;;;;;;;48.00;27.93;;;8.70;99.90;;;;;;5039842;28;20451;-77
2023/04/15 03:28:54;;;;;;;48.97;30.00;;;8.60;99.90;;;;;;5038434;28;20607;-77
2023/04/15 03:31:21;;;;;;;48.87;29.10;;;8.70;99.90;;;;;;5038957;28;20422;-77
2023/04/15 03:33:48;;;;;;;59.90;30.37;;;8.70;99.90;;;;;;5038574;28;20451;-77
2023/04/15 03:36:15;;;;;;;49.93;30.47;;;8.60;99.90;;;;;;5036669;28;20822;-77
2023/04/15 03:38:42;;;;;;;50.77;31.53;;;8.70;99.90;;;;;;5037215;28;20476;-77
2023/04/15 03:41:09;;;;;;;47.37;28.00;;;8.70;99.90;;;;;;5035544;28;20454;-77
2023/04/15 03:43:37;;;;;;;50.40;28.93;;;8.70;99.90;;;;;;5035061;28;20411;-77
2023/04/15 03:46:04;;;;;;;49.77;31.27;;;8.70;99.90;;;;;;5034787;28;20425;-77
2023/04/15 03:48:31;;;;;;;46.13;29.30;;;8.70;99.90;;;;;;5034754;28;20578;-77
2023/04/15 03:50:58;;;;;;;53.07;29.67;;;8.80;99.90;;;;;;5034878;28;20418;-77
2023/04/15 03:53:25;;;;;;;45.10;29.93;;;8.70;99.90;;;;;;5034675;28;20862;-77
2023/04/15 03:55:51;;;;;;;47.80;29.97;;;8.80;99.90;;;;;;5035339;28;20469;-77
2023/04/15 03:58:18;;;;;;;50.63;31.73;;;9.10;99.90;;;;;;5036820;28;20893;-77
2023/04/15 04:00:46;;;;;;;45.80;28.30;;;8.70;99.90;;;;;;5034999;28;20507;-77
2023/04/15 04:03:13;;;;;;;41.60;26.63;;;8.70;99.90;;;;;;5034795;28;20458;-77
2023/04/15 04:05:41;;;;;;;41.60;26.50;;;8.80;99.90;;;;;;5034502;28;20456;-77
2023/04/15 04:08:08;;;;;;;41.60;27.20;;;8.80;99.90;;;;;;5035196;28;20453;-77
2023/04/15 04:10:35;;;;;;;40.77;26.60;;;8.70;99.90;;;;;;5034081;28;20451;-77
2023/04/15 04:13:02;;;;;;;41.83;25.77;;;8.40;99.90;;;;;;5042773;28;20461;-77
2023/04/15 04:15:30;;;;;;;47.67;26.37;;;8.70;99.90;;;;;;5054688;28;20543;-77
2023/04/15 04:17:59;;;;;;;39.20;27.30;;;8.70;99.90;;;;;;5053272;28;20472;-77
2023/04/15 04:20:25;;;;;;;46.20;29.37;;;8.70;99.90;;;;;;5047179;28;20514;-77
2023/04/15 04:22:52;;;;;;;44.60;27.27;;;8.70;99.90;;;;;;5049911;28;20518;-77
2023/04/15 04:25:19;;;;;;;44.07;28.80;;;8.80;99.90;;;;;;5055368;28;20474;-77
2023/04/15 04:27:46;;;;;;;34.60;24.60;;;8.80;99.90;;;;;;5053674;28;20522;-77
2023/04/15 04:30:13;;;;;;;40.80;26.43;;;8.80;99.90;;;;;;5044177;28;20512;-77
2023/04/15 04:32:40;;;;;;;42.57;28.37;;;8.80;99.90;;;;;;5036962;28;20462;-78
2023/04/15 04:35:09;;;;;;;41.03;26.43;;;8.80;99.90;;;;;;5036017;28;20517;-78
2023/04/15 04:37:36;;;;;;;43.90;25.97;;;8.90;99.90;;;;;;5035650;28;20531;-78
2023/04/15 04:40:03;;;;;;;33.70;23.83;;;8.90;99.90;;;;;;5033516;28;20479;-77
2023/04/15 04:42:30;;;;;;;35.23;22.80;;;8.90;99.90;;;;;;5033915;28;20506;-76
2023/04/15 04:44:57;;;;;;;37.87;26.17;;;9.00;99.90;;;;;;5034043;28;20456;-77
2023/04/15 04:47:24;;;;;;;38.90;25.47;;;9.00;99.90;;;;;;5034468;28;20950;-77
2023/04/15 04:49:50;;;;;;;35.03;24.27;;;9.00;99.90;;;;;;5033773;28;20508;-78
2023/04/15 04:52:19;;;;;;;32.97;23.03;;;9.10;99.90;;;;;;5033559;28;20883;-77
2023/04/15 04:54:46;;;;;;;33.73;23.20;;;9.10;99.90;;;;;;5034639;28;21028;-77
2023/04/15 04:57:13;;;;;;;36.77;23.97;;;9.10;99.90;;;;;;5034362;28;20450;-77
2023/04/15 04:59:40;;;;;;;29.40;20.70;;;9.20;99.90;;;;;;5033708;28;20497;-77
2023/04/15 05:02:07;;;;;;;32.40;22.40;;;9.20;99.90;;;;;;5033526;28;20468;-75
2023/04/15 05:04:34;;;;;;;29.33;23.00;;;9.20;99.90;;;;;;5033314;28;20428;-75
2023/04/15 05:07:01;;;;;;;32.90;22.50;;;9.20;99.90;;;;;;5033317;28;20447;-75
2023/04/15 05:09:31;;;;;;;28.47;20.63;;;9.20;99.90;;;;;;5033068;28;20468;-76
2023/04/15 05:11:58;;;;;;;25.97;20.07;;;9.20;99.90;;;;;;5033396;28;20827;-75
2023/04/15 05:14:25;;;;;;;28.23;20.90;;;9.20;99.90;;;;;;5033572;28;20448;-77
2023/04/15 05:16:52;;;;;;;28.97;21.17;;;9.20;99.90;;;;;;5032944;28;20479;-75
2023/04/15 05:19:19;;;;;;;28.67;21.50;;;9.20;99.90;;;;;;5033351;28;20518;-77
2023/04/15 05:21:45;;;;;;;32.53;21.50;;;9.20;99.90;;;;;;5033225;28;20531;-77
2023/04/15 05:24:12;;;;;;;26.93;19.37;;;9.20;99.90;;;;;;5033257;28;20448;-76
2023/04/15 05:26:40;;;;;;;26.70;20.23;;;9.20;99.90;;;;;;5033034;28;20978;-76
2023/04/15 05:29:07;;;;;;;28.77;19.97;;;9.20;99.90;;;;;;5033307;28;20475;-76
2023/04/15 05:31:34;;;;;;;30.10;20.57;;;9.20;99.90;;;;;;5033823;28;20470;-76
2023/04/15 05:34:01;;;;;;;27.50;19.10;;;9.20;99.90;;;;;;5033236;28;20445;-77
2023/04/15 05:36:28;;;;;;;27.50;18.77;;;9.30;99.90;;;;;;5033019;28;20458;-76
2023/04/15 05:38:55;;;;;;;27.63;19.87;;;9.40;99.90;;;;;;5034186;28;20476;-76
2023/04/15 05:41:22;;;;;;;24.93;18.57;;;9.30;99.90;;;;;;5037502;28;20450;-76
2023/04/15 05:43:50;;;;;;;22.60;18.00;;;9.30;99.90;;;;;;5036877;28;20407;-76
2023/04/15 05:46:17;;;;;;;21.17;17.73;;;9.40;99.90;;;;;;5037063;28;20444;-77
2023/04/15 05:48:43;;;;;;;22.37;18.40;;;9.40;99.90;;;;;;5036968;28;20484;-77
2023/04/15 05:51:10;;;;;;;25.90;18.47;;;9.40;99.90;;;;;;5037710;28;20462;-77
2023/04/15 05:53:37;;;;;;;22.53;18.00;;;9.40;99.90;;;;;;5037066;28;20456;-78
2023/04/15 05:56:04;;;;;;;22.10;18.63;;;9.50;99.90;;;;;;5037544;28;20467;-78
2023/04/15 05:58:31;;;;;;;22.80;16.43;;;9.50;99.90;;;;;;5037465;28;20512;-77
2023/04/15 06:01:00;;;;;;;21.40;17.13;;;9.50;99.90;;;;;;5037364;28;20451;-77
2023/04/15 06:03:27;;;;;;;24.43;16.40;;;9.60;99.90;;;;;;5037737;28;20443;-77
2023/04/15 06:05:54;;;;;;;21.57;16.40;;;9.60;99.90;;;;;;5037716;28;20538;-78
2023/04/15 06:08:21;;;;;;;20.17;15.70;;;9.40;99.90;;;;;;5037290;28;20451;-77
2023/04/15 06:10:48;;;;;;;16.93;15.23;;;9.60;99.90;;;;;;5037457;28;20527;-78
2023/04/15 06:13:15;;;;;;;20.53;15.73;;;9.60;99.90;;;;;;5037249;28;20457;-78
2023/04/15 06:15:42;;;;;;;23.00;16.10;;;9.70;99.90;;;;;;5037615;28;20482;-78
2023/04/15 06:18:11;;;;;;;22.73;16.17;;;9.70;99.90;;;;;;5038225;28;20452;-76
2023/04/15 06:20:38;;;;;;;18.70;14.50;;;9.70;99.90;;;;;;5037809;28;20451;-78
2023/04/15 06:23:05;;;;;;;18.03;15.27;;;9.70;99.90;;;;;;5037980;28;20443;-77
2023/04/15 06:25:32;;;;;;;19.10;14.83;;;9.70;99.90;;;;;;5037517;28;20460;-78
2023/04/15 06:27:59;;;;;;;18.87;15.17;;;9.80;99.90;;;;;;5036641;28;20429;-77
2023/04/15 06:30:26;;;;;;;21.00;15.10;;;9.80;99.90;;;;;;5036957;28;20475;-77
2023/04/15 06:32:53;;;;;;;17.90;14.40;;;9.80;99.90;;;;;;5036684;28;20540;-77
2023/04/15 06:35:22;;;;;;;16.03;13.27;;;9.80;49.20;;;;;;5037445;28;20453;-78
2023/04/15 06:37:48;;;;;;;20.43;14.70;;;9.90;37.10;;;;;;5037603;28;20486;-76
2023/04/15 06:40:15;;;;;;;17.63;14.30;;;9.90;1.00;;;;;;5037870;28;20834;-77
2023/04/15 06:42:42;;;;;;;17.40;14.83;;;9.90;1.00;;;;;;5037807;28;20457;-77
2023/04/15 06:45:10;;;;;;;16.40;14.23;;;9.90;1.00;;;;;;5039387;28;20492;-77
2023/04/15 06:47:37;;;;;;;17.43;13.90;;;10.00;1.00;;;;;;5038619;28;20870;-77
2023/04/15 06:50:04;;;;;;;14.80;13.30;;;10.00;1.00;;;;;;5037544;28;20455;-78
2023/04/15 06:52:32;;;;;;;14.47;12.97;;;10.00;1.00;;;;;;5037903;28;20928;-77
2023/04/15 06:54:59;;;;;;;19.10;14.30;;;10.20;1.00;;;;;;5037025;28;20539;-77
2023/04/15 06:57:27;;;;;;;20.40;16.03;;;10.20;1.00;;;;;;5037384;28;20455;-76
2023/04/15 06:59:54;;;;;;;17.90;13.97;;;10.20;1.00;;;;;;5038078;28;20480;-75
2023/04/15 07:02:21;;;;;;;16.53;13.63;;;9.90;1.00;;;;;;5038338;28;20467;-77
2023/04/15 07:04:48;;;;;;;17.23;14.33;;;10.20;1.00;;;;;;5038032;28;20546;-77
2023/04/15 07:07:16;;;;;;;17.40;15.67;;;10.20;1.00;;;;;;5036840;28;20516;-77
2023/04/15 07:09:44;;;;;;;17.77;13.73;;;10.20;1.00;;;;;;5036673;28;20449;-77
2023/04/15 07:12:11;;;;;;;16.63;14.17;;;10.30;1.00;;;;;;5036787;28;20458;-77
2023/04/15 07:14:38;;;;;;;17.60;13.97;;;10.20;1.00;;;;;;5037254;28;20454;-77
2023/04/15 07:17:05;;;;;;;17.43;13.80;;;10.20;1.00;;;;;;5035942;28;20480;-77
2023/04/15 07:19:32;;;;;;;17.30;14.00;;;10.20;1.00;;;;;;5037168;28;20450;-76
2023/04/15 07:21:59;;;;;;;15.07;12.30;;;10.20;1.00;;;;;;5036603;28;21026;-77
2023/04/15 07:24:26;;;;;;;19.17;14.37;;;10.20;1.00;;;;;;5036398;28;20449;-76
2023/04/15 07:26:55;;;;;;;14.43;13.03;;;10.20;1.00;;;;;;5037270;28;20432;-75
2023/04/15 07:29:21;;;;;;;17.07;12.63;;;10.20;1.00;;;;;;5036688;28;20472;-77
2023/04/15 07:31:48;;;;;;;17.87;14.10;;;10.20;1.00;;;;;;5037261;28;20510;-76
2023/04/15 07:34:15;;;;;;;16.40;14.13;;;10.20;1.00;;;;;;5037450;28;20445;-77
2023/04/15 07:36:42;;;;;;;17.80;14.60;;;10.20;1.00;;;;;;5045858;28;20476;-76
2023/04/15 07:39:09;;;;;;;14.73;13.13;;;10.20;1.00;;;;;;5052545;28;20447;-76
2023/04/15 07:41:36;;;;;;;17.97;14.40;;;10.10;1.00;;;;;;5056821;28;20480;-77
2023/04/15 07:44:05;;;;;;;16.77;14.17;;;10.10;1.00;;;;;;5056251;28;20453;-77
2023/04/15 07:46:32;;;;;;;17.17;14.43;;;10.00;1.00;;;;;;5057135;28;20474;-77
2023/04/15 07:48:58;;;;;;;16.83;13.53;;;10.00;1.00;;;;;;5055961;28;20519;-77
2023/04/15 07:51:25;;;;;;;15.90;14.20;;;10.00;1.00;;;;;;5058092;28;20446;-77
2023/04/15 07:53:53;;;;;;;16.13;14.37;;;10.00;1.00;;;;;;5049568;28;20440;-78
2023/04/15 07:56:20;;;;;;;17.03;14.40;;;10.00;1.00;;;;;;5041021;28;20538;-78
2023/04/15 07:58:47;;;;;;;18.30;14.67;;;10.00;1.00;;;;;;5036073;28;20451;-77
2023/04/15 08:01:16;;;;;;;18.57;15.63;;;10.00;1.00;;;;;;5036827;28;20453;-78
2023/04/15 08:03:42;;;;;;;17.07;13.70;;;10.00;1.00;;;;;;5034779;28;21018;-78
2023/04/15 08:06:09;;;;;;;19.67;16.20;;;9.90;1.00;;;;;;5035231;28;20449;-78
2023/04/15 08:08:36;;;;;;;14.73;13.20;;;10.00;1.00;;;;;;5035458;28;20471;-78
2023/04/15 08:11:03;;;;;;;16.37;14.77;;;10.00;1.00;;;;;;5035924;28;20500;-78
2023/04/15 08:13:30;;;;;;;20.03;14.97;;;9.90;1.00;;;;;;5035208;28;20459;-79
2023/04/15 08:16:14;;;;;;;16.03;14.47;;;10.00;1.00;;;;;;5034950;28;20487;-78
2023/04/15 08:18:42;;;;;;;18.70;15.33;;;10.00;1.00;;;;;;5035623;28;20497;-78
2023/04/15 08:21:09;;;;;;;17.80;14.77;;;10.00;1.00;;;;;;5037651;28;20441;-77
2023/04/15 08:23:36;;;;;;;18.67;14.83;;;10.00;1.00;;;;;;5036538;28;20445;-77
2023/04/15 08:26:03;;;;;;;17.30;15.50;;;10.00;1.00;;;;;;5035531;28;20482;-78
2023/04/15 08:28:30;;;;;;;21.27;16.70;;;10.00;1.00;;;;;;5036634;28;20496;-77
2023/04/15 08:30:57;;;;;;;18.00;16.07;;;10.00;3.20;;;;;;5037017;28;20765;-77
2023/04/15 08:33:24;;;;;;;17.77;15.97;;;10.00;24.20;;;;;;5036439;28;20453;-77
2023/04/15 08:35:52;;;;;;;17.30;15.50;;;9.90;1.00;;;;;;5034702;28;20429;-78
2023/04/15 08:38:19;;;;;;;17.10;15.30;;;10.40;14.10;;;;;;5034626;28;20488;-79
2023/04/15 08:40:46;;;;;;;16.90;15.10;;;9.90;1.00;;;;;;5034329;28;20452;-78
2023/04/15 08:43:18;;;;;;;18.53;16.33;;;10.00;1.00;;;;;;5033893;28;20966;-78
2023/04/15 08:45:47;;;;;;;20.70;17.47;;;10.00;1.00;;;;;;5034783;28;20882;-78
2023/04/15 08:48:15;;;;;;;19.70;15.80;;;9.80;64.20;;;;;;5033617;28;20515;-77
2023/04/15 08:50:42;;;;;;;18.87;16.87;;;10.00;12.40;;;;;;5033929;28;20451;-78
2023/04/15 08:53:11;;;;;;;21.27;18.33;;;10.00;27.80;;;;;;5034471;28;20548;-77
2023/04/15 08:55:43;;;;;;;20.40;17.10;;;9.90;37.30;;;;;;5034375;28;20518;-77
2023/04/15 08:58:11;;;;;;;18.53;16.73;;;9.80;99.90;;;;;;5033894;28;20469;-78
2023/04/15 09:00:38;;;;;;;20.93;16.27;;;10.00;65.60;;;;;;5033743;28;20515;-77
2023/04/15 09:03:06;;;;;;;21.30;18.67;;;10.00;80.10;;;;;;5033677;28;20453;-77
2023/04/15 09:05:33;;;;;;;18.93;16.87;;;10.10;95.10;;;;;;5033597;28;20453;-77
2023/04/15 09:08:01;;;;;;;22.07;17.57;;;10.10;91.80;;;;;;5033434;28;20474;-77
2023/04/15 09:10:29;;;;;;;20.77;16.37;;;10.10;89.50;;;;;;5033342;28;20450;-79
2023/04/15 09:12:57;;;;;;;22.37;18.67;;;10.10;47.20;;;;;;5032997;28;20540;-77
2023/04/15 09:15:26;;;;;;;20.13;17.70;;;10.20;85.90;;;;;;5032764;28;20464;-78
2023/04/15 09:17:53;;;;;;;22.00;18.10;;;10.30;99.90;;;;;;5033369;28;20805;-77
2023/04/15 09:20:20;;;;;;;18.20;16.33;;;10.20;61.70;;;;;;5033297;28;20523;-77
2023/04/15 09:22:49;;;;;;;24.17;18.70;;;10.20;28.30;;;;;;5032953;28;20993;-77
2023/04/15 09:25:27;;;;;;;23.03;17.07;;;10.20;11.90;;;;;;5033500;28;20460;-77
2023/04/15 09:27:56;;;;;;;19.17;16.67;;;10.10;43.90;;;;;;5034229;28;20460;-77
2023/04/15 09:30:23;;;;;;;24.30;20.70;;;10.20;81.20;;;;;;5033784;28;20536;-78
2023/04/15 09:32:51;;;;;;;19.17;16.83;;;10.20;43.10;;;;;;5039184;28;20459;-78
2023/04/15 09:35:18;;;;;;;19.90;17.80;;;10.20;74.90;;;;;;5036079;28;20495;-78
2023/04/15 09:37:44;;;;;;;21.93;19.50;;;10.20;99.90;;;;;;5034673;28;20484;-79
2023/04/15 09:40:12;;;;;;;18.90;16.60;;;10.20;98.40;;;;;;5033684;28;21042;-77
2023/04/15 09:42:56;;;;;;;27.20;21.77;;;10.20;70.90;;;;;;5033462;28;20985;-78
2023/04/15 09:45:24;;;;;;;20.33;17.27;;;10.20;99.90;;;;;;5035504;28;20433;-77
2023/04/15 09:47:51;;;;;;;16.77;14.90;;;10.20;99.90;;;;;;5033794;28;20453;-78
2023/04/15 09:50:19;;;;;;;18.47;16.50;;;10.20;99.90;;;;;;5033318;28;20856;-78
2023/04/15 09:52:47;;;;;;;19.00;16.00;;;10.10;99.90;;;;;;5034229;28;20455;-77
2023/04/15 09:55:14;;;;;;;18.63;16.17;;;10.10;99.90;;;;;;5034962;28;20484;-78
2023/04/15 09:57:43;;;;;;;19.43;17.43;;;10.10;99.90;;;;;;5034995;28;20466;-79
2023/04/15 10:00:12;;;;;;;18.30;16.40;;;10.10;99.90;;;;;;5035595;28;20480;-78
2023/04/15 10:02:41;;;;;;;21.70;17.87;;;10.10;99.90;;;;;;5035835;28;20457;-78
2023/04/15 10:05:11;;;;;;;19.83;16.23;;;10.10;99.90;;;;;;5035177;28;20449;-77
2023/04/15 10:07:39;;;;;;;18.60;16.70;;;10.10;99.90;;;;;;5035539;28;20456;-78
2023/04/15 10:10:08;;;;;;;20.90;17.03;;;10.00;99.90;;;;;;5034586;28;20578;-78
2023/04/15 10:12:37;;;;;;;19.60;17.60;;;10.00;99.90;;;;;;5035860;28;20464;-77
2023/04/15 10:15:05;;;;;;;19.87;16.83;;;10.10;99.90;;;;;;5035596;28;20514;-79
2023/04/15 10:17:35;;;;;;;18.80;16.20;;;9.70;99.90;;;;;;5036700;28;20900;-78
2023/04/15 10:20:04;;;;;;;24.93;18.70;;;10.00;99.90;;;;;;5035985;28;20876;-78
2023/04/15 10:22:32;;;;;;;20.00;16.97;;;10.00;99.90;;;;;;5035156;28;20422;-78
2023/04/15 10:24:59;;;;;;;22.83;19.60;;;10.00;99.90;;;;;;5035461;28;20981;-78
2023/04/15 10:27:27;;;;;;;29.63;23.23;;;10.00;99.90;;;;;;5038115;28;20454;-77
2023/04/15 10:29:55;;;;;;;19.60;17.03;;;10.10;99.90;;;;;;5038226;28;20443;-77
2023/04/15 10:32:23;;;;;;;20.83;17.80;;;10.10;99.90;;;;;;5038351;28;20451;-77
2023/04/15 10:34:54;;;;;;;21.13;17.47;;;10.10;99.90;;;;;;5038894;28;20534;-77
2023/04/15 10:37:21;;;;;;;18.73;16.83;;;10.10;99.90;;;;;;5039186;28;20512;-77
2023/04/15 10:39:48;;;;;;;24.93;20.90;;;10.20;99.90;;;;;;5039524;28;20453;-79
2023/04/15 10:42:16;;;;;;;20.87;17.07;;;10.30;99.90;;;;;;5040498;28;20446;-77
2023/04/15 10:44:45;;;;;;;21.33;16.87;;;10.20;99.90;;;;;;5040330;28;20475;-77
2023/04/15 10:47:14;;;;;;;15.97;14.37;;;10.20;99.90;;;;;;5041675;28;20524;-78
2023/04/15 10:49:46;;;;;;;19.70;17.73;;;10.20;99.90;;;;;;5066984;22;20516;-85
2023/04/15 10:52:16;;;;;;;19.30;16.70;;;10.20;99.90;;;;;;5043935;28;20927;-84
2023/04/15 10:54:42;;;;;;;20.10;15.90;;;10.20;99.90;;;;;;5045538;28;20790;-84
2023/04/15 10:57:15;;;;;;;19.67;15.97;;;10.10;99.90;;;;;;5058651;28;20468;-85
2023/04/15 11:00:01;;;;;;;16.83;15.03;;;10.20;99.90;;;;;;5060333;28;20469;-84
2023/04/15 11:02:43;;;;;;;20.63;18.50;;;10.20;99.90;;;;;;5058281;28;20421;-82
2023/04/15 11:05:10;;;;;;;17.13;15.17;;;10.20;99.90;;;;;;5060354;28;20433;-83
2023/04/15 11:07:40;;;;;;;17.20;15.50;;;10.20;99.90;;;;;;5057838;28;20459;-83
2023/04/15 11:10:55;;;;;;;21.30;17.53;;;10.20;99.90;;;;;;5055067;28;20461;-83
2023/04/15 11:13:31;;;;;;;19.60;16.00;;;9.90;99.90;;;;;;5042878;28;20440;-84
2023/04/15 11:16:02;;;;;;;19.67;16.83;;;10.10;99.90;;;;;;5047331;28;20439;-84
2023/04/15 11:18:31;;;;;;;18.63;16.70;;;10.30;99.90;;;;;;5048396;28;20479;-85
2023/04/15 11:21:01;;;;;;;16.67;14.97;;;10.20;99.90;;;;;;5048866;28;20444;-83
2023/04/15 11:23:31;;;;;;;18.10;16.30;;;10.20;99.90;;;;;;5044142;28;20452;-83
2023/04/15 11:25:59;;;;;;;17.03;15.23;;;10.20;99.90;;;;;;5054740;28;20426;-84
2023/04/15 11:28:27;;;;;;;18.03;15.57;;;10.20;99.90;;;;;;5054826;28;20547;-84
2023/04/15 11:30:55;;;;;;;19.90;16.50;;;10.20;99.90;;;;;;5045250;28;20435;-84
2023/04/15 11:33:22;;;;;;;20.13;16.83;;;10.30;99.90;;;;;;5044806;28;20520;-85
2023/04/15 11:35:50;;;;;;;17.93;16.10;;;10.30;99.90;;;;;;5043713;28;20536;-84
2023/04/15 11:38:17;;;;;;;18.40;16.47;;;10.20;99.90;;;;;;5042991;28;20938;-86
2023/04/15 11:40:46;;;;;;;16.83;15.13;;;10.00;99.90;;;;;;5042415;28;20481;-84
2023/04/15 11:43:15;;;;;;;18.27;16.40;;;10.20;99.90;;;;;;5042704;28;20480;-86
2023/04/15 11:45:50;;;;;;;18.83;16.40;;;10.20;99.90;;;;;;5043954;28;20448;-83
2023/04/15 11:48:21;;;;;;;20.47;16.93;;;10.30;99.90;;;;;;5046014;28;20444;-84
2023/04/15 11:50:54;;;;;;;18.80;16.90;;;10.30;99.90;;;;;;5044028;28;20507;-83
2023/04/15 11:53:21;;;;;;;18.50;16.70;;;10.30;99.90;;;;;;5044510;28;20425;-83
2023/04/15 11:55:53;;;;;;;19.47;16.90;;;10.30;99.90;;;;;;5045017;28;20445;-83
2023/04/15 11:58:22;;;;;;;16.63;14.90;;;10.30;99.90;;;;;;5052627;28;20484;-81
2023/04/15 12:00:51;;;;;;;17.13;15.30;;;10.20;99.90;;;;;;5053834;28;20488;-83
2023/04/15 12:03:21;;;;;;;19.73;16.60;;;10.30;99.90;;;;;;5052472;28;20493;-84
2023/04/15 12:06:10;;;;;;;18.07;16.17;;;10.30;99.90;;;;;;5048942;28;20857;-84
2023/04/15 12:08:59;;;;;;;19.33;16.50;;;10.20;99.90;;;;;;5044855;28;20440;-84
2023/04/15 12:11:42;;;;;;;18.27;14.80;;;10.30;99.90;;;;;;5038057;28;20475;-83
2023/04/15 12:14:12;;;;;;;15.90;14.03;;;10.30;99.90;;;;;;5044451;28;20475;-85
2023/04/15 12:16:41;;;;;;;17.53;15.17;;;10.30;99.90;;;;;;5043632;28;20435;-85
2023/04/15 12:19:13;;;;;;;20.00;17.87;;;10.30;99.90;;;;;;5042294;28;21054;-84
2023/04/15 12:21:42;;;;;;;17.23;15.43;;;10.30;99.90;;;;;;5043067;28;20461;-84
2023/04/15 12:24:11;;;;;;;16.00;14.40;;;10.40;99.90;;;;;;5044357;28;20463;-83
2023/04/15 12:26:44;;;;;;;16.97;14.80;;;10.40;99.90;;;;;;5043063;28;20463;-83
2023/04/15 12:29:13;;;;;;;19.47;15.33;;;10.50;99.90;;;;;;5043471;28;20446;-83
2023/04/15 12:31:48;;;;;;;17.20;14.70;;;10.50;99.90;;;;;;5043213;28;20472;-84
2023/04/15 12:34:16;;;;;;;16.50;14.90;;;10.60;99.90;;;;;;5044895;28;20404;-82
2023/04/15 12:36:43;;;;;;;17.97;16.07;;;10.80;99.90;;;;;;5046557;28;20472;-82
2023/04/15 12:39:10;;;;;;;15.70;14.13;;;10.60;99.90;;;;;;5049791;28;21017;-83